Main page
METAR-TAF:

METAR-TAF

Airports :

Kulob Airport

Kulob, Tajikistan

latitude: 37-59-18N, longitude: 069-48-18E, elevation: 699 m

Current weather observation

The report was made 50 minutes ago, at 00:00 UTC
Wind 10 kt from the North/Northeast
Temperature 17°C
Humidity 59%
Pressure 1012 hPa
Visibility 10 km or more

METAR: UTDK 250000Z 02005MPS 9999 NSC 17/09 Q1012 R01/09//70 RMK QFE702/0936

Time: 05:50 (00:50 UTC)

Forecast

The report was made 50 minutes ago, at 00:00 UTC
Forecast valid from 25 at 01 UTC to 25 at 13 UTC
Wind 10 kt from the North/Northeast
Visibility 10 km or more
Few clouds at a height of 6600 ft, Cumulonimbus.
Scattered clouds at a height of 10000 ft
Probability 40% :
Temporary
from 25 at 06 UTC to 25 at 13 UTC
thunderstorm, light rain,

TAF: UTDK 250000Z 2501/2513 03005MPS 9999 FEW066CB SCT100 PROB40 TEMPO 2506/2513 -TSRA

Weather observations and forecasts of more than 4000 airports (METAR and TAF reports).

The available stations are represented by yellow and red dots on the map.

Hover mouse over dot to see the name of the station.

Then click to see weather observations and forecasts.

To change the map : click on the green buttons with a black cross to zoom in, on the green button with a dash to zoom out, or on the green arrows for adjacent maps.


METAR-TAF: